الصفحة الرئيسية
METAR-TAF:

METAR-TAF

مطار :

Dubbo, أستراليا

دائرة عرض: 32-12S, خط طول: 148-34E, ارتفاع: 275 متر

مراقبة الطقس الحالي

تاريخ ووقت الإصدار 22 دقيقة قبل الساعة 02:00UTC
ريح 16 عقدة من الشمال/الشمال الغربي
درجة الحرارة 39°درجة مئوية
الرطوبة 26%
ضغط 1009 hPa

METAR: YSDU 010200Z AUTO 34016KT //// // NCD 39/16 Q1009

زمن: 13:22 (02:22 UTC)

توقعات

تاريخ ووقت الإصدار 2ساعات و 51 دقيقة قبل الساعة 23:31UTC
التوقعات صالحة من01 الساعة 00 UTC إلى 01 الساعة 18 UTC
ريح 15 عقدة من الشمال/الشمال الغربي تتزايد حتى 25 عقدة
الرؤية 10 كم أو أكثر
الغيوم لا تقل 1500 م ولا وجود لمزنة ركامية السحاب الأسود
أصبح
من 01 الساعة 08 UTC إلى 01 الساعة 10 UTC
ريح 14 عقدة من الجنوب/الجنوب الغربي
الرؤية 10 كم أو أكثر
الغيوم لا تقل 1500 م ولا وجود لمزنة ركامية السحاب الأسود
نظرية الاحتمالات 30%
بين IN و TE UTC
ريح 20 عقدةمن اتجاهات متغيرة تتزايد حتى 35 عقدة
الرؤية: 4000 متر
غيوم قليلة على ارتفاع 10000 قدم, مزنة ركامية.
عاصفة رعدية, مطر

TAF: YSDU 302331Z 0100/0118 34015G25KT CAVOK BECMG 0108/0110 20014KT CAVOK PROB30 INTER 0105/0109 VRB20G35KT 4000 TSRA FEW100CB

أرصاد الطقس والتوقعات من أكثر من 4000 مطار (تقارير الطقس للمطار METAR والتنبؤ بالطقس بالمطارTAF).

المحطات المتاحة هي النقط الصفراء والحمراء على الخريطة.

حرك المؤشر فوق النقطة لمعرفة اسم المحطة.

ثم انقر لمعرفة أرصاد وتوقعات الطقس.

لتغيير الخارطة: اضغط على الأزرار الخضراء مع رمز الصليب الأسود للتكبير. على الزر الأخضر مع شرطة للتصغير، أو على الأسهم الخضراء للخرائط المجاورة.


METAR-TAF: